This is the latest recevied weather packets stored in our database for station/object SP7WMI-13. If no packets are shown the sender has not sent any weather packets the latest 10 day(s).
| Time | Temp. | Humidity | Pressure | Rain* | Wind** | Luminosity | Snow |
|---|---|---|---|---|---|---|---|
| 1777556018 | 15° C | 32% | 1026.7 hPa | 0 mm | - | - | - |
| 1777555115 | 16.67° C | 30% | 1026.7 hPa | 0 mm | - | - | - |
| 1777554212 | 16.11° C | 30% | 1026.7 hPa | 0 mm | - | - | - |
| 1777553309 | 15° C | 33% | 1027 hPa | 0 mm | - | - | - |
| 1777552406 | 12.78° C | 34% | 1027.2 hPa | 0 mm | - | - | - |
| 1777551503 | 12.78° C | 33% | 1027.5 hPa | 0 mm | - | - | - |
| 1777550600 | 13.89° C | 30% | 1027.5 hPa | 0 mm | - | - | - |
| 1777549697 | 13.89° C | 33% | 1027.6 hPa | 0 mm | - | - | - |
| 1777546990 | 10.56° C | 36% | 1027.9 hPa | 0 mm | - | - | - |
| 1777477287 | 11.67° C | 36% | 1026 hPa | 0 mm | - | - | - |
| 1777476384 | 10.56° C | 35% | 1026 hPa | 0 mm | - | - | - |
| 1777475481 | 10.56° C | 38% | 1026 hPa | 0 mm | - | - | - |
| 1777474578 | 10.56° C | 37% | 1026.1 hPa | 0 mm | - | - | - |
| 1777473675 | 10.56° C | 34% | 1026 hPa | 0 mm | - | - | - |
| 1777472772 | 11.67° C | 35% | 1026.1 hPa | 0 mm | - | - | - |
| 1777471869 | 11.11° C | 36% | 1026.1 hPa | 0 mm | - | - | - |
| 1777470966 | 11.67° C | 36% | 1026.2 hPa | 0 mm | - | - | - |
| 1777470063 | 12.22° C | 35% | 1026.2 hPa | 0 mm | - | - | - |
| 1777469160 | 11.11° C | 37% | 1026.2 hPa | 0 mm | - | - | - |
| 1777468257 | 10° C | 37% | 1026.3 hPa | 0 mm | - | - | - |
| 1777467354 | 11.67° C | 37% | 1026.3 hPa | 0 mm | - | - | - |
| 1777466451 | 12.22° C | 35% | 1026.4 hPa | 0 mm | - | - | - |
| 1777465548 | 11.67° C | 37% | 1026.2 hPa | 0 mm | - | - | - |
| 1777464644 | 11.11° C | 39% | 1026.3 hPa | 0 mm | - | - | - |
| 1777463741 | 9.44° C | 43% | 1026.6 hPa | 0 mm | - | - | - |
* Rain since midnight (hover to see other rain measurements)
** Current wind speed in m/s (hover to see current wind gust speed)